Time;durP1;ratioP1;P1;durP2;ratioP2;P2;SDS_P1;SDS_P2;PMS_P1;PMS_P2;Temp;Humidity;BMP_temperature;BMP_pressure;BME280_temperature;BME280_humidity;BME280_pressure;Samples;Min_cycle;Max_cycle;Signal;HPM_P1;HPM_P2
2021/08/13 00:02:11;;;;;;;0.10;0.10;;;;;;;;;;6097206;23;20381;-87
2021/08/13 00:04:38;;;;;;;0.10;0.10;;;;;;;;;;6095716;23;20476;-87
2021/08/13 00:07:04;;;;;;;0.10;0.10;;;;;;;;;;6119814;23;20010;-87
2021/08/13 00:09:30;;;;;;;0.10;0.10;;;;;;;;;;6120311;23;20010;-87
2021/08/13 00:11:56;;;;;;;0.10;0.10;;;;;;;;;;6095987;23;20038;-87
2021/08/13 00:14:22;;;;;;;0.10;0.10;;;;;;;;;;6119979;23;20014;-88
2021/08/13 00:16:48;;;;;;;0.10;0.10;;;;;;;;;;6120248;23;20089;-87
2021/08/13 00:19:14;;;;;;;0.10;0.10;;;;;;;;;;6120259;23;20017;-87
2021/08/13 00:21:41;;;;;;;0.10;0.10;;;;;;;;;;6120054;23;20018;-87
2021/08/13 00:24:07;;;;;;;0.10;0.10;;;;;;;;;;6095707;23;20022;-88
2021/08/13 00:26:33;;;;;;;0.10;0.10;;;;;;;;;;6095491;23;20015;-88
2021/08/13 00:28:59;;;;;;;0.10;0.10;;;;;;;;;;6097171;23;20014;-87
2021/08/13 00:31:26;;;;;;;0.15;0.15;;;;;;;;;;6097194;23;20041;-87
2021/08/13 00:33:52;;;;;;;0.10;0.10;;;;;;;;;;6119930;23;20038;-88
2021/08/13 00:36:18;;;;;;;0.20;0.20;;;;;;;;;;6119970;23;20337;-87
2021/08/13 00:38:45;;;;;;;0.20;0.20;;;;;;;;;;6096764;23;20015;-87
2021/08/13 00:41:11;;;;;;;0.10;0.10;;;;;;;;;;6097129;23;20010;-87
2021/08/13 00:43:38;;;;;;;0.10;0.10;;;;;;;;;;6094875;23;20106;-87
2021/08/13 00:46:04;;;;;;;0.20;0.20;;;;;;;;;;6119935;23;20015;-87
2021/08/13 00:48:30;;;;;;;0.10;0.10;;;;;;;;;;6095340;23;20014;-87
2021/08/13 00:50:56;;;;;;;0.10;0.10;;;;;;;;;;6095519;23;20441;-87
2021/08/13 00:53:22;;;;;;;0.10;0.10;;;;;;;;;;6097001;23;20025;-87
2021/08/13 00:55:49;;;;;;;0.10;0.10;;;;;;;;;;6095287;23;20019;-87
2021/08/13 00:58:15;;;;;;;0.15;0.15;;;;;;;;;;6095187;23;20033;-87
2021/08/13 01:00:41;;;;;;;0.20;0.20;;;;;;;;;;6119540;23;20099;-88
2021/08/13 01:03:07;;;;;;;0.10;0.10;;;;;;;;;;6095067;23;20026;-88
2021/08/13 01:05:33;;;;;;;0.10;0.10;;;;;;;;;;6095020;23;20077;-88
2021/08/13 01:07:59;;;;;;;0.10;0.10;;;;;;;;;;6119961;23;20082;-88
2021/08/13 01:10:25;;;;;;;0.10;0.10;;;;;;;;;;6095420;23;20011;-88
2021/08/13 01:12:58;;;;;;;0.15;0.15;;;;;;;;;;6119615;23;20014;-88
2021/08/13 01:15:24;;;;;;;0.10;0.10;;;;;;;;;;6095384;23;20467;-87
2021/08/13 01:18:00;;;;;;;0.10;0.10;;;;;;;;;;6119466;23;20044;-87
2021/08/13 01:20:45;;;;;;;0.10;0.10;;;;;;;;;;6119493;23;20014;-88
2021/08/13 01:23:30;;;;;;;0.10;0.10;;;;;;;;;;6096649;23;20082;-88
2021/08/13 01:25:56;;;;;;;0.10;0.10;;;;;;;;;;6094992;23;20020;-88
2021/08/13 01:28:29;;;;;;;0.10;0.10;;;;;;;;;;6119064;23;20018;-88
2021/08/13 01:30:55;;;;;;;0.10;0.10;;;;;;;;;;6096661;23;20068;-88
2021/08/13 01:33:21;;;;;;;0.10;0.10;;;;;;;;;;6119471;23;20345;-88
2021/08/13 01:35:47;;;;;;;0.10;0.10;;;;;;;;;;6094940;23;20022;-88
2021/08/13 01:38:13;;;;;;;0.10;0.10;;;;;;;;;;6094521;23;20022;-88
2021/08/13 01:40:42;;;;;;;0.10;0.10;;;;;;;;;;6096432;23;20026;-88
2021/08/13 01:43:08;;;;;;;0.10;0.10;;;;;;;;;;6096314;23;20014;-88
2021/08/13 01:45:34;;;;;;;0.20;0.20;;;;;;;;;;6095287;23;20014;-87
2021/08/13 01:48:01;;;;;;;0.10;0.10;;;;;;;;;;6119238;23;20402;-87
2021/08/13 01:50:27;;;;;;;0.10;0.10;;;;;;;;;;6119175;23;20437;-87
2021/08/13 01:52:53;;;;;;;0.10;0.10;;;;;;;;;;6119276;23;20018;-87
2021/08/13 01:55:19;;;;;;;0.10;0.10;;;;;;;;;;6094455;23;20453;-87
2021/08/13 01:57:45;;;;;;;0.10;0.10;;;;;;;;;;6119159;23;20433;-87
2021/08/13 02:00:12;;;;;;;0.10;0.10;;;;;;;;;;6119210;23;20070;-88
2021/08/13 02:02:38;;;;;;;0.10;0.10;;;;;;;;;;6119017;23;20037;-88
2021/08/13 02:05:04;;;;;;;0.20;0.20;;;;;;;;;;6094816;23;20042;-89
2021/08/13 02:07:31;;;;;;;0.10;0.10;;;;;;;;;;6118979;23;20014;-88
2021/08/13 02:09:57;;;;;;;0.10;0.10;;;;;;;;;;6094438;23;20206;-88
2021/08/13 02:12:23;;;;;;;0.10;0.10;;;;;;;;;;6119200;23;20025;-88
2021/08/13 02:14:49;;;;;;;0.10;0.10;;;;;;;;;;6094403;23;20018;-87
2021/08/13 02:17:16;;;;;;;0.10;0.10;;;;;;;;;;6094464;23;20452;-88
2021/08/13 02:19:44;;;;;;;0.10;0.10;;;;;;;;;;6094624;23;20033;-87
2021/08/13 02:22:10;;;;;;;0.10;0.10;;;;;;;;;;6118974;23;20460;-87
2021/08/13 02:24:36;;;;;;;0.10;0.10;;;;;;;;;;6094786;23;20019;-87
2021/08/13 02:27:04;;;;;;;0.10;0.10;;;;;;;;;;6118420;23;20098;-87
2021/08/13 02:29:30;;;;;;;0.10;0.10;;;;;;;;;;6118934;23;20015;-87
2021/08/13 02:31:56;;;;;;;0.10;0.10;;;;;;;;;;6096241;23;20047;-87
2021/08/13 02:34:22;;;;;;;0.10;0.10;;;;;;;;;;6095828;23;20314;-87
2021/08/13 02:36:53;;;;;;;0.10;0.10;;;;;;;;;;6095992;23;20457;-87
2021/08/13 02:39:38;;;;;;;0.10;0.10;;;;;;;;;;6118531;23;20042;-87
2021/08/13 02:42:08;;;;;;;0.17;0.17;;;;;;;;;;6095825;23;20109;-88
2021/08/13 02:44:35;;;;;;;0.10;0.10;;;;;;;;;;6118801;23;20078;-88
2021/08/13 02:47:03;;;;;;;0.10;0.10;;;;;;;;;;6118800;23;20014;-87
2021/08/13 02:49:29;;;;;;;0.10;0.10;;;;;;;;;;6118733;23;20014;-87
2021/08/13 02:51:56;;;;;;;0.15;0.15;;;;;;;;;;6096109;23;20068;-87
2021/08/13 02:54:24;;;;;;;0.10;0.10;;;;;;;;;;6118719;23;20093;-87
2021/08/13 02:56:50;;;;;;;0.20;0.20;;;;;;;;;;6118280;23;20018;-87
2021/08/13 02:59:17;;;;;;;0.10;0.10;;;;;;;;;;6094598;23;20541;-87
2021/08/13 03:01:43;;;;;;;0.17;0.17;;;;;;;;;;6118720;23;20011;-87
2021/08/13 03:04:09;;;;;;;0.10;0.10;;;;;;;;;;6119058;23;20015;-88
2021/08/13 03:06:39;;;;;;;0.10;0.10;;;;;;;;;;6094460;23;20069;-87
2021/08/13 03:09:06;;;;;;;0.10;0.10;;;;;;;;;;6094485;23;20010;-88
2021/08/13 03:11:32;;;;;;;0.10;0.10;;;;;;;;;;6094525;23;20460;-87
2021/08/13 03:13:59;;;;;;;0.10;0.10;;;;;;;;;;6118505;23;20069;-87
2021/08/13 03:16:25;;;;;;;0.10;0.10;;;;;;;;;;6094289;23;20448;-87
2021/08/13 03:18:51;;;;;;;0.17;0.17;;;;;;;;;;6118597;23;20033;-87
2021/08/13 03:21:17;;;;;;;0.10;0.10;;;;;;;;;;6118926;23;20010;-87
2021/08/13 03:23:43;;;;;;;0.10;0.10;;;;;;;;;;6096313;23;20344;-86
2021/08/13 03:26:11;;;;;;;0.10;0.10;;;;;;;;;;6096237;23;20014;-86
2021/08/13 03:28:37;;;;;;;0.10;0.10;;;;;;;;;;6120782;23;20021;-87
2021/08/13 03:31:03;;;;;;;0.10;0.10;;;;;;;;;;6096534;23;20090;-87
2021/08/13 03:33:29;;;;;;;0.10;0.10;;;;;;;;;;6120549;23;20014;-87
2021/08/13 03:35:55;;;;;;;0.20;0.20;;;;;;;;;;6120359;23;20464;-87
2021/08/13 03:38:21;;;;;;;0.10;0.10;;;;;;;;;;6120024;23;20089;-87
2021/08/13 03:40:47;;;;;;;0.20;0.20;;;;;;;;;;6120622;23;20038;-86
2021/08/13 03:43:15;;;;;;;0.40;0.40;;;;;;;;;;6095868;23;20015;-87
2021/08/13 03:45:41;;;;;;;0.10;0.10;;;;;;;;;;6120309;23;20057;-87
2021/08/13 03:48:07;;;;;;;0.10;0.10;;;;;;;;;;6095808;23;20018;-87
2021/08/13 03:50:33;;;;;;;0.10;0.10;;;;;;;;;;6120473;23;20015;-87
2021/08/13 03:52:59;;;;;;;0.10;0.10;;;;;;;;;;6120400;23;20149;-87
2021/08/13 03:55:25;;;;;;;0.10;0.10;;;;;;;;;;6096254;23;20010;-87
2021/08/13 03:57:51;;;;;;;0.10;0.10;;;;;;;;;;6120333;23;20386;-88
2021/08/13 04:00:17;;;;;;;0.10;0.10;;;;;;;;;;6095894;23;20029;-88
2021/08/13 04:02:44;;;;;;;0.10;0.10;;;;;;;;;;6120420;23;20019;-90
2021/08/13 04:05:10;;;;;;;0.10;0.10;;;;;;;;;;6096031;23;20018;-88
2021/08/13 04:07:36;;;;;;;0.10;0.10;;;;;;;;;;6120124;23;20015;-88
2021/08/13 04:10:03;;;;;;;0.20;0.20;;;;;;;;;;6120353;23;20467;-87
2021/08/13 04:12:29;;;;;;;0.10;0.10;;;;;;;;;;6095608;23;20025;-87
2021/08/13 04:14:55;;;;;;;0.20;0.20;;;;;;;;;;6120119;23;20090;-88
2021/08/13 04:17:21;;;;;;;0.10;0.10;;;;;;;;;;6120309;23;20046;-88
2021/08/13 04:19:48;;;;;;;0.20;0.20;;;;;;;;;;6120134;23;20030;-88
2021/08/13 04:22:16;;;;;;;0.20;0.20;;;;;;;;;;6095934;23;20042;-88
2021/08/13 04:24:42;;;;;;;0.10;0.10;;;;;;;;;;6120197;23;20015;-88
2021/08/13 04:27:08;;;;;;;0.10;0.10;;;;;;;;;;6095392;23;20017;-88
2021/08/13 04:29:34;;;;;;;0.10;0.10;;;;;;;;;;6120092;23;20014;-88
2021/08/13 04:32:00;;;;;;;0.10;0.10;;;;;;;;;;6120074;23;20019;-89
2021/08/13 04:34:32;;;;;;;0.10;0.10;;;;;;;;;;6128028;23;20022;-88
2021/08/13 04:37:08;;;;;;;0.10;0.10;;;;;;;;;;6103999;23;20041;-89
2021/08/13 04:39:37;;;;;;;0.10;0.10;;;;;;;;;;6095206;23;20029;-88
2021/08/13 04:42:03;;;;;;;0.20;0.20;;;;;;;;;;6095256;23;20014;-88
2021/08/13 04:44:31;;;;;;;0.13;0.13;;;;;;;;;;6119374;23;20078;-88
2021/08/13 04:46:59;;;;;;;0.73;0.20;;;;;;;;;;6095596;23;20021;-87
2021/08/13 04:49:25;;;;;;;0.10;0.10;;;;;;;;;;6095229;23;20014;-88
2021/08/13 04:51:51;;;;;;;0.10;0.10;;;;;;;;;;6095424;23;20483;-88
2021/08/13 04:54:17;;;;;;;0.20;0.20;;;;;;;;;;6095542;23;20436;-89
2021/08/13 04:56:43;;;;;;;0.10;0.10;;;;;;;;;;6119913;23;20021;-87
2021/08/13 04:59:10;;;;;;;0.10;0.10;;;;;;;;;;6119673;23;20040;-88
2021/08/13 05:01:36;;;;;;;0.10;0.10;;;;;;;;;;6119702;23;20010;-88
2021/08/13 05:04:02;;;;;;;0.10;0.10;;;;;;;;;;6096996;23;20014;-87
2021/08/13 05:06:28;;;;;;;0.10;0.10;;;;;;;;;;6119720;23;20065;-88
2021/08/13 05:08:54;;;;;;;0.10;0.10;;;;;;;;;;6119405;23;20089;-87
2021/08/13 05:11:20;;;;;;;0.10;0.10;;;;;;;;;;6095444;23;20019;-87
2021/08/13 05:13:46;;;;;;;0.10;0.10;;;;;;;;;;6095106;23;20110;-87
2021/08/13 05:16:12;;;;;;;0.10;0.10;;;;;;;;;;6095053;23;20079;-87
2021/08/13 05:18:42;;;;;;;0.20;0.20;;;;;;;;;;6094799;23;20022;-87
2021/08/13 05:21:08;;;;;;;0.10;0.10;;;;;;;;;;6119589;23;20240;-87
2021/08/13 05:23:34;;;;;;;1.35;0.40;;;;;;;;;;6095223;23;20085;-87
2021/08/13 05:26:00;;;;;;;0.10;0.10;;;;;;;;;;6094899;23;20460;-87
2021/08/13 05:28:46;;;;;;;0.10;0.10;;;;;;;;;;6095290;23;20045;-87
2021/08/13 05:31:12;;;;;;;0.10;0.10;;;;;;;;;;6096692;23;20010;-87
2021/08/13 05:33:38;;;;;;;0.10;0.10;;;;;;;;;;6096634;23;20015;-88
2021/08/13 05:36:05;;;;;;;0.10;0.10;;;;;;;;;;6119499;23;20386;-88
2021/08/13 05:38:31;;;;;;;0.10;0.10;;;;;;;;;;6094804;23;20069;-87
2021/08/13 05:40:57;;;;;;;0.10;0.10;;;;;;;;;;6094837;23;20109;-88
2021/08/13 05:43:23;;;;;;;0.10;0.10;;;;;;;;;;6094728;23;20154;-87
2021/08/13 05:45:50;;;;;;;0.10;0.10;;;;;;;;;;6094936;23;20015;-88
2021/08/13 05:48:36;;;;;;;0.20;0.20;;;;;;;;;;6095693;23;20015;-96
2021/08/13 05:51:04;;;;;;;0.20;0.20;;;;;;;;;;6094268;23;20010;-93
2021/08/13 05:53:30;;;;;;;0.20;0.20;;;;;;;;;;6071510;23;20085;-93
2021/08/13 05:55:56;;;;;;;0.10;0.10;;;;;;;;;;6072020;23;20014;-92
2021/08/13 05:58:44;;;;;;;0.10;0.10;;;;;;;;;;6097110;23;20022;-96
2021/08/13 06:01:10;;;;;;;0.10;0.10;;;;;;;;;;6099174;23;20020;-94
2021/08/13 06:03:36;;;;;;;0.20;0.20;;;;;;;;;;6095877;23;20066;-90
2021/08/13 06:06:02;;;;;;;0.10;0.10;;;;;;;;;;6119922;23;20018;-92
2021/08/13 06:08:28;;;;;;;0.20;0.20;;;;;;;;;;6119735;23;20014;-93
2021/08/13 06:10:54;;;;;;;0.25;0.25;;;;;;;;;;6095145;23;20017;-94
2021/08/13 06:13:20;;;;;;;0.20;0.20;;;;;;;;;;6094926;23;20445;-89
2021/08/13 06:15:46;;;;;;;0.20;0.20;;;;;;;;;;6096192;23;20342;-89
2021/08/13 06:18:12;;;;;;;0.30;0.30;;;;;;;;;;6117252;23;20035;-89
2021/08/13 06:20:38;;;;;;;0.20;0.20;;;;;;;;;;6118085;23;20018;-89
2021/08/13 06:23:04;;;;;;;0.25;0.25;;;;;;;;;;6118924;23;20147;-89
2021/08/13 06:25:30;;;;;;;0.20;0.20;;;;;;;;;;6096163;23;20093;-89
2021/08/13 06:27:56;;;;;;;0.20;0.20;;;;;;;;;;6119069;23;20475;-89
2021/08/13 06:30:22;;;;;;;0.20;0.20;;;;;;;;;;6119020;23;20045;-89
2021/08/13 06:32:50;;;;;;;0.10;0.10;;;;;;;;;;6070478;23;20072;-90
2021/08/13 06:35:16;;;;;;;0.20;0.20;;;;;;;;;;6094777;23;20011;-91
2021/08/13 06:37:49;;;;;;;0.20;0.20;;;;;;;;;;6094549;23;20015;-90
2021/08/13 06:40:15;;;;;;;0.20;0.20;;;;;;;;;;6128053;23;20019;-88
2021/08/13 06:42:42;;;;;;;0.10;0.10;;;;;;;;;;6118773;23;20010;-90
2021/08/13 06:45:09;;;;;;;0.20;0.20;;;;;;;;;;6118892;23;20026;-89
2021/08/13 06:47:36;;;;;;;0.47;0.47;;;;;;;;;;6118385;23;20079;-84
2021/08/13 06:50:02;;;;;;;0.10;0.10;;;;;;;;;;6119022;23;20033;-87
2021/08/13 06:52:28;;;;;;;0.55;0.40;;;;;;;;;;6118849;23;20057;-88
2021/08/13 06:54:54;;;;;;;0.20;0.20;;;;;;;;;;6096037;23;20033;-87
2021/08/13 06:57:20;;;;;;;0.10;0.10;;;;;;;;;;6093932;23;20452;-88
2021/08/13 06:59:46;;;;;;;0.10;0.10;;;;;;;;;;6095127;23;20097;-92
2021/08/13 07:02:12;;;;;;;0.20;0.20;;;;;;;;;;6092963;23;20010;-88
2021/08/13 07:04:38;;;;;;;0.30;0.30;;;;;;;;;;6094639;23;20445;-87
2021/08/13 07:07:04;;;;;;;0.20;0.20;;;;;;;;;;6094956;23;20073;-87
2021/08/13 07:09:30;;;;;;;0.20;0.20;;;;;;;;;;6094041;23;20349;-91
2021/08/13 07:11:57;;;;;;;0.10;0.10;;;;;;;;;;6118005;23;20104;-87
2021/08/13 07:14:23;;;;;;;0.15;0.15;;;;;;;;;;6094305;23;20041;-87
2021/08/13 07:16:49;;;;;;;0.20;0.20;;;;;;;;;;6095511;23;20504;-88
2021/08/13 07:19:15;;;;;;;0.20;0.20;;;;;;;;;;6094100;23;20017;-86
2021/08/13 07:21:41;;;;;;;0.10;0.10;;;;;;;;;;6094081;23;20018;-87
2021/08/13 07:24:07;;;;;;;0.20;0.20;;;;;;;;;;6118535;23;20014;-87
2021/08/13 07:26:33;;;;;;;0.20;0.20;;;;;;;;;;6095808;23;20085;-87
2021/08/13 07:28:59;;;;;;;0.10;0.10;;;;;;;;;;6094232;23;20015;-91
2021/08/13 07:31:25;;;;;;;0.47;0.40;;;;;;;;;;6119055;23;20042;-87
2021/08/13 07:33:51;;;;;;;0.55;0.55;;;;;;;;;;6118788;23;20471;-87
2021/08/13 07:36:17;;;;;;;0.20;0.20;;;;;;;;;;6094487;23;20476;-87
2021/08/13 07:38:43;;;;;;;0.20;0.20;;;;;;;;;;6118250;23;20025;-88
2021/08/13 07:41:09;;;;;;;0.20;0.20;;;;;;;;;;6094347;23;20063;-88
2021/08/13 07:43:36;;;;;;;0.20;0.20;;;;;;;;;;6118593;23;20309;-88
2021/08/13 07:46:02;;;;;;;0.15;0.15;;;;;;;;;;6094429;23;20034;-88
2021/08/13 07:48:30;;;;;;;0.20;0.20;;;;;;;;;;6118286;23;20337;-88
2021/08/13 07:50:56;;;;;;;0.17;0.17;;;;;;;;;;6094072;23;20014;-87
2021/08/13 07:53:22;;;;;;;0.20;0.20;;;;;;;;;;6095992;23;20018;-87
2021/08/13 07:55:48;;;;;;;0.30;0.30;;;;;;;;;;6095460;23;20053;-87
2021/08/13 07:58:14;;;;;;;0.10;0.10;;;;;;;;;;6094024;23;20464;-88
2021/08/13 08:00:40;;;;;;;0.20;0.20;;;;;;;;;;6118313;23;20028;-87
2021/08/13 08:03:07;;;;;;;0.15;0.15;;;;;;;;;;6118569;23;20329;-87
2021/08/13 08:05:33;;;;;;;0.20;0.20;;;;;;;;;;6094395;23;20076;-87
2021/08/13 08:08:00;;;;;;;0.30;0.30;;;;;;;;;;6095886;23;20174;-87
2021/08/13 08:10:26;;;;;;;0.10;0.10;;;;;;;;;;6098818;23;20014;-87
2021/08/13 08:12:52;;;;;;;0.20;0.20;;;;;;;;;;6120503;23;20025;-87
2021/08/13 08:15:18;;;;;;;0.20;0.20;;;;;;;;;;6120237;23;20010;-87
2021/08/13 08:17:44;;;;;;;0.10;0.10;;;;;;;;;;6097316;23;20437;-87
2021/08/13 08:20:10;;;;;;;0.10;0.10;;;;;;;;;;6119971;23;20021;-87
2021/08/13 08:22:36;;;;;;;0.20;0.20;;;;;;;;;;6120116;23;20389;-87
2021/08/13 08:25:02;;;;;;;0.20;0.20;;;;;;;;;;6120027;23;20042;-88
2021/08/13 08:27:28;;;;;;;0.20;0.20;;;;;;;;;;6119994;23;20040;-87
2021/08/13 08:29:54;;;;;;;0.10;0.10;;;;;;;;;;6120334;23;20082;-87
2021/08/13 08:32:20;;;;;;;0.20;0.20;;;;;;;;;;6097394;23;20057;-87
2021/08/13 08:34:46;;;;;;;0.20;0.20;;;;;;;;;;6095526;23;20440;-87
2021/08/13 08:37:14;;;;;;;0.40;0.40;;;;;;;;;;6097231;23;20077;-87
2021/08/13 08:39:40;;;;;;;0.20;0.20;;;;;;;;;;6096930;23;20019;-86
2021/08/13 08:42:12;;;;;;;0.10;0.10;;;;;;;;;;6119850;23;20014;-88
2021/08/13 08:44:38;;;;;;;0.20;0.20;;;;;;;;;;6119949;23;20014;-88
2021/08/13 08:47:04;;;;;;;0.20;0.20;;;;;;;;;;6095353;23;20431;-87
2021/08/13 08:49:32;;;;;;;0.20;0.20;;;;;;;;;;6119602;23;20073;-87
2021/08/13 08:51:58;;;;;;;0.20;0.20;;;;;;;;;;6119786;23;20468;-87
2021/08/13 08:54:26;;;;;;;0.20;0.20;;;;;;;;;;6119815;23;20010;-87
2021/08/13 08:56:52;;;;;;;0.20;0.20;;;;;;;;;;6095154;23;20093;-88
2021/08/13 08:59:21;;;;;;;0.38;0.38;;;;;;;;;;6097040;23;20085;-88
2021/08/13 09:01:47;;;;;;;0.20;0.20;;;;;;;;;;6119570;23;20459;-87
2021/08/13 09:04:13;;;;;;;0.20;0.20;;;;;;;;;;6119812;23;20014;-88
2021/08/13 09:06:40;;;;;;;0.20;0.20;;;;;;;;;;6095243;23;20017;-88
2021/08/13 09:09:06;;;;;;;0.20;0.20;;;;;;;;;;6096765;23;20021;-87
2021/08/13 09:11:32;;;;;;;0.22;0.22;;;;;;;;;;6095396;23;20011;-86
2021/08/13 09:13:59;;;;;;;0.20;0.20;;;;;;;;;;6119919;23;20018;-87
2021/08/13 09:16:25;;;;;;;0.20;0.20;;;;;;;;;;6095227;23;20040;-87
2021/08/13 09:19:01;;;;;;;0.40;0.40;;;;;;;;;;6094907;23;20504;-87
2021/08/13 09:21:27;;;;;;;0.20;0.20;;;;;;;;;;6119421;23;20010;-87
2021/08/13 09:23:54;;;;;;;0.20;0.20;;;;;;;;;;6119466;23;20065;-87
2021/08/13 09:26:24;;;;;;;0.20;0.20;;;;;;;;;;6095018;23;20077;-88
2021/08/13 09:28:59;;;;;;;0.43;0.43;;;;;;;;;;6094939;23;20015;-87
2021/08/13 09:31:29;;;;;;;0.20;0.20;;;;;;;;;;6094862;23;20011;-87
2021/08/13 09:33:56;;;;;;;0.20;0.20;;;;;;;;;;6118584;23;20014;-87
2021/08/13 09:36:23;;;;;;;0.30;0.30;;;;;;;;;;6119433;23;20345;-87
2021/08/13 09:38:50;;;;;;;0.20;0.20;;;;;;;;;;6119219;23;20427;-87
2021/08/13 09:41:18;;;;;;;0.20;0.20;;;;;;;;;;6119404;23;20356;-86
2021/08/13 09:43:56;;;;;;;0.10;0.10;;;;;;;;;;6119123;23;20018;-87
2021/08/13 09:46:22;;;;;;;0.32;0.32;;;;;;;;;;6096197;23;20280;-87
2021/08/13 09:48:49;;;;;;;0.52;0.35;;;;;;;;;;6094621;23;20011;-87
2021/08/13 09:51:32;;;;;;;0.35;0.35;;;;;;;;;;6119008;23;20014;-87
2021/08/13 09:53:58;;;;;;;;;;;;;;;;;;6096825;23;20069;-87
2021/08/13 09:56:25;;;;;;;0.10;0.10;;;;;;;;;;6094993;23;19913;-87
2021/08/13 09:58:51;;;;;;;0.20;0.20;;;;;;;;;;6094791;23;20049;-87
2021/08/13 10:01:34;;;;;;;0.55;0.40;;;;;;;;;;6118977;23;20314;-87
2021/08/13 10:04:01;;;;;;;0.20;0.20;;;;;;;;;;6128869;23;20081;-87
2021/08/13 10:06:30;;;;;;;0.55;0.55;;;;;;;;;;6094943;23;20025;-86
2021/08/13 10:08:56;;;;;;;0.10;0.10;;;;;;;;;;6118438;23;20520;-87
2021/08/13 10:11:22;;;;;;;0.40;0.40;;;;;;;;;;6094920;23;20386;-87
2021/08/13 10:13:48;;;;;;;0.73;0.73;;;;;;;;;;6094804;23;20025;-87
2021/08/13 10:16:21;;;;;;;0.20;0.20;;;;;;;;;;6121585;23;20014;-86
2021/08/13 10:18:49;;;;;;;0.22;0.22;;;;;;;;;;6120628;23;20018;-88
2021/08/13 10:21:15;;;;;;;0.20;0.20;;;;;;;;;;6094750;23;20014;-88
2021/08/13 10:23:41;;;;;;;0.30;0.30;;;;;;;;;;6118821;23;20457;-88
2021/08/13 10:26:08;;;;;;;0.20;0.20;;;;;;;;;;6094380;23;20023;-88
2021/08/13 10:28:34;;;;;;;0.35;0.35;;;;;;;;;;6094637;23;20014;-88
2021/08/13 10:31:01;;;;;;;0.10;0.10;;;;;;;;;;6119525;23;20082;-88
2021/08/13 10:33:27;;;;;;;0.40;0.40;;;;;;;;;;6119667;23;20045;-88
2021/08/13 10:35:56;;;;;;;0.30;0.30;;;;;;;;;;6119649;23;20014;-87
2021/08/13 10:38:24;;;;;;;0.25;0.25;;;;;;;;;;6095675;23;20010;-88
2021/08/13 10:40:50;;;;;;;0.20;0.20;;;;;;;;;;6095782;23;20014;-87
2021/08/13 10:43:16;;;;;;;0.20;0.20;;;;;;;;;;6095690;23;20109;-88
2021/08/13 10:45:42;;;;;;;0.40;0.40;;;;;;;;;;6119928;23;20096;-87
2021/08/13 10:48:14;;;;;;;0.20;0.20;;;;;;;;;;6120056;23;20015;-87
2021/08/13 10:50:40;;;;;;;0.20;0.20;;;;;;;;;;6119467;23;20041;-88
2021/08/13 10:53:27;;;;;;;0.20;0.20;;;;;;;;;;6095583;23;20473;-88
2021/08/13 10:55:53;;;;;;;0.20;0.20;;;;;;;;;;6096302;23;20018;-88
2021/08/13 10:58:32;;;;;;;0.20;0.20;;;;;;;;;;6070196;23;20499;-88
2021/08/13 11:01:05;;;;;;;0.20;0.20;;;;;;;;;;6096011;23;20086;-87
2021/08/13 11:03:31;;;;;;;0.50;0.40;;;;;;;;;;6118524;23;20046;-87
2021/08/13 11:05:58;;;;;;;0.20;0.20;;;;;;;;;;6096002;23;20011;-88
2021/08/13 11:08:24;;;;;;;0.20;0.20;;;;;;;;;;6094439;23;20090;-88
2021/08/13 11:10:50;;;;;;;0.20;0.20;;;;;;;;;;6096028;23;20022;-88
2021/08/13 11:13:19;;;;;;;0.30;0.30;;;;;;;;;;6096005;23;20010;-88
2021/08/13 11:15:46;;;;;;;0.20;0.20;;;;;;;;;;6118065;23;20085;-87
2021/08/13 11:18:32;;;;;;;0.20;0.20;;;;;;;;;;6118612;23;20014;-87
2021/08/13 11:20:58;;;;;;;0.50;0.50;;;;;;;;;;6094454;23;20015;-88
2021/08/13 11:23:24;;;;;;;0.20;0.20;;;;;;;;;;6118590;23;20038;-88
2021/08/13 11:25:51;;;;;;;0.47;0.32;;;;;;;;;;6094264;23;20018;-87
2021/08/13 11:28:18;;;;;;;0.20;0.20;;;;;;;;;;6118463;23;20333;-87
2021/08/13 11:30:45;;;;;;;0.20;0.20;;;;;;;;;;6118407;23;20053;-88
2021/08/13 11:33:26;;;;;;;0.20;0.20;;;;;;;;;;6095910;23;20018;-88
2021/08/13 11:35:53;;;;;;;0.20;0.20;;;;;;;;;;6096025;23;20018;-88
2021/08/13 11:38:38;;;;;;;0.28;0.28;;;;;;;;;;6118378;23;20018;-87
2021/08/13 11:41:14;;;;;;;0.57;0.20;;;;;;;;;;6105782;23;20130;-87
2021/08/13 11:43:40;;;;;;;0.20;0.20;;;;;;;;;;6128995;23;20041;-89
2021/08/13 11:46:07;;;;;;;0.20;0.20;;;;;;;;;;6096199;23;20090;-87
2021/08/13 11:48:33;;;;;;;0.20;0.20;;;;;;;;;;6095849;23;20393;-87
2021/08/13 11:51:05;;;;;;;0.30;0.28;;;;;;;;;;6120501;23;20222;-88
2021/08/13 11:53:36;;;;;;;1.10;0.88;;;;;;;;;;6129807;23;20018;-87
2021/08/13 11:56:02;;;;;;;1.25;1.15;;;;;;;;;;6120095;23;20010;-87
2021/08/13 11:58:28;;;;;;;0.20;0.20;;;;;;;;;;6097541;23;20052;-87
2021/08/13 12:01:01;;;;;;;0.20;0.20;;;;;;;;;;6096243;23;20014;-88
2021/08/13 12:03:27;;;;;;;0.20;0.20;;;;;;;;;;6095644;23;20011;-87
2021/08/13 12:05:53;;;;;;;0.60;0.60;;;;;;;;;;6120287;23;20015;-87
2021/08/13 12:08:19;;;;;;;0.20;0.20;;;;;;;;;;6120033;23;20010;-88
2021/08/13 12:10:49;;;;;;;0.20;0.20;;;;;;;;;;6097478;23;20472;-87
2021/08/13 12:13:15;;;;;;;0.60;0.30;;;;;;;;;;6095729;23;20019;-88
2021/08/13 12:15:41;;;;;;;0.20;0.20;;;;;;;;;;6120392;23;20015;-87
2021/08/13 12:18:08;;;;;;;0.32;0.32;;;;;;;;;;6120173;23;20322;-88
2021/08/13 12:20:34;;;;;;;0.20;0.20;;;;;;;;;;6097096;23;20014;-86
2021/08/13 12:23:04;;;;;;;0.13;0.13;;;;;;;;;;6120015;23;20380;-86
2021/08/13 12:25:31;;;;;;;0.20;0.20;;;;;;;;;;6120028;23;20448;-86
2021/08/13 12:27:57;;;;;;;0.20;0.20;;;;;;;;;;6119985;23;20018;-85
2021/08/13 12:30:23;;;;;;;0.20;0.20;;;;;;;;;;6095823;23;20037;-85
2021/08/13 12:32:51;;;;;;;0.50;0.50;;;;;;;;;;6120022;23;20340;-86
2021/08/13 12:35:17;;;;;;;0.20;0.20;;;;;;;;;;6095459;23;20014;-86
2021/08/13 12:37:43;;;;;;;0.38;0.38;;;;;;;;;;6095490;23;20021;-85
2021/08/13 12:40:10;;;;;;;0.20;0.20;;;;;;;;;;6095619;23;20449;-86
2021/08/13 12:42:36;;;;;;;0.20;0.20;;;;;;;;;;6119861;23;20058;-86
2021/08/13 12:45:02;;;;;;;0.20;0.20;;;;;;;;;;6120001;23;20142;-86
2021/08/13 12:47:28;;;;;;;0.10;0.10;;;;;;;;;;6119548;23;20101;-86
2021/08/13 12:49:54;;;;;;;0.32;0.32;;;;;;;;;;6095644;23;20040;-86
2021/08/13 12:52:21;;;;;;;0.20;0.20;;;;;;;;;;6095297;23;20524;-85
2021/08/13 12:54:57;;;;;;;0.30;0.30;;;;;;;;;;6118933;23;20078;-86
2021/08/13 12:57:24;;;;;;;0.50;0.50;;;;;;;;;;6125772;23;20015;-86
2021/08/13 13:00:12;;;;;;;0.30;0.30;;;;;;;;;;6119888;23;20456;-86
2021/08/13 13:02:38;;;;;;;0.32;0.30;;;;;;;;;;6106437;23;20041;-86
2021/08/13 13:05:05;;;;;;;0.20;0.20;;;;;;;;;;6119689;23;20448;-86
2021/08/13 13:07:35;;;;;;;0.20;0.20;;;;;;;;;;6095266;23;20018;-85
2021/08/13 13:10:20;;;;;;;0.20;0.20;;;;;;;;;;6095309;23;20540;-87
2021/08/13 13:12:46;;;;;;;0.20;0.20;;;;;;;;;;6094747;23;20023;-86
2021/08/13 13:15:32;;;;;;;0.40;0.40;;;;;;;;;;6119918;23;20066;-86
2021/08/13 13:17:59;;;;;;;0.30;0.30;;;;;;;;;;6100295;23;20020;-86
2021/08/13 13:20:33;;;;;;;0.20;0.20;;;;;;;;;;6119397;23;20150;-85
2021/08/13 13:23:05;;;;;;;0.20;0.20;;;;;;;;;;6129031;23;20345;-87
2021/08/13 13:25:31;;;;;;;;;;;;;;;;;;6097054;23;20017;-86
2021/08/13 13:28:03;;;;;;;0.20;0.20;;;;;;;;;;6096786;23;19913;-86
2021/08/13 13:30:29;;;;;;;;;;;;;;;;;;6119915;23;20010;-86
2021/08/13 13:33:01;;;;;;;0.20;0.20;;;;;;;;;;6096711;23;20342;-86
2021/08/13 13:35:27;;;;;;;0.20;0.20;;;;;;;;;;6094923;23;20015;-85
2021/08/13 13:37:53;;;;;;;3.47;0.32;;;;;;;;;;6096232;23;20041;-84
2021/08/13 13:40:19;;;;;;;0.20;0.20;;;;;;;;;;6106213;23;20011;-85
2021/08/13 13:42:45;;;;;;;0.20;0.20;;;;;;;;;;6070779;23;20327;-86
2021/08/13 13:45:12;;;;;;;0.10;0.10;;;;;;;;;;6119253;23;20046;-86
2021/08/13 13:47:38;;;;;;;0.47;0.47;;;;;;;;;;6094973;23;20010;-86
2021/08/13 13:50:04;;;;;;;0.20;0.20;;;;;;;;;;6119173;23;20033;-86
2021/08/13 13:52:30;;;;;;;0.30;0.30;;;;;;;;;;6095064;23;20389;-86
2021/08/13 13:54:57;;;;;;;0.20;0.20;;;;;;;;;;6119273;23;20014;-86
2021/08/13 13:57:23;;;;;;;0.77;0.65;;;;;;;;;;6094867;23;20508;-86
2021/08/13 13:59:49;;;;;;;0.22;0.22;;;;;;;;;;6119294;23;20438;-85
2021/08/13 14:02:15;;;;;;;0.35;0.15;;;;;;;;;;6096311;23;20085;-85
2021/08/13 14:04:41;;;;;;;0.45;0.45;;;;;;;;;;6096198;23;20069;-86
2021/08/13 14:07:07;;;;;;;0.20;0.20;;;;;;;;;;6095854;23;20021;-86
2021/08/13 14:09:33;;;;;;;2.08;0.88;;;;;;;;;;6096289;23;20021;-86
2021/08/13 14:11:59;;;;;;;0.20;0.20;;;;;;;;;;6119279;23;20129;-85
2021/08/13 14:14:25;;;;;;;0.10;0.10;;;;;;;;;;6119039;23;20010;-88
2021/08/13 14:16:51;;;;;;;0.20;0.20;;;;;;;;;;6094232;23;20014;-88
2021/08/13 14:19:17;;;;;;;1.20;0.43;;;;;;;;;;6094670;23;20018;-87
2021/08/13 14:21:43;;;;;;;0.20;0.20;;;;;;;;;;6094799;23;20022;-87
2021/08/13 14:24:09;;;;;;;0.20;0.20;;;;;;;;;;6118959;23;20010;-88
2021/08/13 14:26:36;;;;;;;0.20;0.20;;;;;;;;;;6094625;23;20093;-88
2021/08/13 14:29:02;;;;;;;0.17;0.17;;;;;;;;;;6118948;23;20014;-88
2021/08/13 14:31:28;;;;;;;0.20;0.20;;;;;;;;;;6118939;23;20092;-87
2021/08/13 14:33:54;;;;;;;0.43;0.43;;;;;;;;;;6118767;23;20018;-88
2021/08/13 14:36:20;;;;;;;0.20;0.20;;;;;;;;;;6094342;23;20022;-88
2021/08/13 14:38:46;;;;;;;0.20;0.20;;;;;;;;;;6118806;23;20014;-87
2021/08/13 14:41:12;;;;;;;1.77;0.82;;;;;;;;;;6096131;23;20092;-88
2021/08/13 14:43:38;;;;;;;0.20;0.20;;;;;;;;;;6118812;23;20013;-87
2021/08/13 14:46:05;;;;;;;0.30;0.30;;;;;;;;;;6118915;23;20097;-88